sensor_id;sensor_type;location;lat;lon;timestamp;P1;durP1;ratioP1;P2;durP2;ratioP2
59786;SDS011;45672;51.612;5.536;2022-07-10T00:01:59;6.53;;;1.73;;
59786;SDS011;45672;51.612;5.536;2022-07-10T00:04:26;3.97;;;1.58;;
59786;SDS011;45672;51.612;5.536;2022-07-10T00:06:51;4.18;;;1.60;;
59786;SDS011;45672;51.612;5.536;2022-07-10T00:09:16;7.97;;;2.20;;
59786;SDS011;45672;51.612;5.536;2022-07-10T00:11:42;7.45;;;1.83;;
59786;SDS011;45672;51.612;5.536;2022-07-10T00:14:08;7.13;;;1.90;;
59786;SDS011;45672;51.612;5.536;2022-07-10T00:16:33;7.53;;;1.70;;
59786;SDS011;45672;51.612;5.536;2022-07-10T00:19:00;7.15;;;1.65;;
59786;SDS011;45672;51.612;5.536;2022-07-10T00:21:25;5.47;;;1.45;;
59786;SDS011;45672;51.612;5.536;2022-07-10T00:23:50;7.10;;;1.90;;
59786;SDS011;45672;51.612;5.536;2022-07-10T00:26:16;4.47;;;1.60;;
59786;SDS011;45672;51.612;5.536;2022-07-10T00:28:41;7.30;;;1.90;;
59786;SDS011;45672;51.612;5.536;2022-07-10T00:31:06;3.85;;;1.55;;
59786;SDS011;45672;51.612;5.536;2022-07-10T00:33:35;10.60;;;1.60;;
59786;SDS011;45672;51.612;5.536;2022-07-10T00:36:00;4.18;;;1.45;;
59786;SDS011;45672;51.612;5.536;2022-07-10T00:38:27;4.97;;;1.70;;
59786;SDS011;45672;51.612;5.536;2022-07-10T00:40:52;6.05;;;2.33;;
59786;SDS011;45672;51.612;5.536;2022-07-10T00:43:18;10.73;;;2.00;;
59786;SDS011;45672;51.612;5.536;2022-07-10T00:45:44;7.57;;;2.45;;
59786;SDS011;45672;51.612;5.536;2022-07-10T00:48:09;6.35;;;1.90;;
59786;SDS011;45672;51.612;5.536;2022-07-10T00:50:36;6.97;;;1.88;;
59786;SDS011;45672;51.612;5.536;2022-07-10T00:53:01;5.20;;;2.10;;
59786;SDS011;45672;51.612;5.536;2022-07-10T00:55:28;7.05;;;1.95;;
59786;SDS011;45672;51.612;5.536;2022-07-10T00:57:53;10.70;;;2.55;;
59786;SDS011;45672;51.612;5.536;2022-07-10T01:00:19;5.63;;;2.42;;
59786;SDS011;45672;51.612;5.536;2022-07-10T01:02:45;10.75;;;2.00;;
59786;SDS011;45672;51.612;5.536;2022-07-10T01:05:10;8.38;;;2.15;;
59786;SDS011;45672;51.612;5.536;2022-07-10T01:07:37;5.82;;;1.95;;
59786;SDS011;45672;51.612;5.536;2022-07-10T01:10:02;5.00;;;1.80;;
59786;SDS011;45672;51.612;5.536;2022-07-10T01:12:28;7.03;;;1.73;;
59786;SDS011;45672;51.612;5.536;2022-07-10T01:14:54;8.32;;;2.92;;
59786;SDS011;45672;51.612;5.536;2022-07-10T01:17:20;12.63;;;3.90;;
59786;SDS011;45672;51.612;5.536;2022-07-10T01:19:45;10.73;;;4.30;;
59786;SDS011;45672;51.612;5.536;2022-07-10T01:22:10;14.93;;;3.70;;
59786;SDS011;45672;51.612;5.536;2022-07-10T01:24:36;7.15;;;2.63;;
59786;SDS011;45672;51.612;5.536;2022-07-10T01:27:01;9.10;;;3.05;;
59786;SDS011;45672;51.612;5.536;2022-07-10T01:29:27;8.60;;;2.95;;
59786;SDS011;45672;51.612;5.536;2022-07-10T01:31:53;12.23;;;4.07;;
59786;SDS011;45672;51.612;5.536;2022-07-10T01:34:19;11.13;;;4.18;;
59786;SDS011;45672;51.612;5.536;2022-07-10T01:36:44;7.45;;;3.38;;
59786;SDS011;45672;51.612;5.536;2022-07-10T01:39:12;5.55;;;2.95;;
59786;SDS011;45672;51.612;5.536;2022-07-10T01:41:38;7.13;;;3.10;;
59786;SDS011;45672;51.612;5.536;2022-07-10T01:44:04;7.00;;;2.80;;
59786;SDS011;45672;51.612;5.536;2022-07-10T01:46:29;4.82;;;2.50;;
59786;SDS011;45672;51.612;5.536;2022-07-10T01:48:55;11.95;;;3.80;;
59786;SDS011;45672;51.612;5.536;2022-07-10T01:51:20;13.38;;;5.32;;
59786;SDS011;45672;51.612;5.536;2022-07-10T01:53:46;12.38;;;5.85;;
59786;SDS011;45672;51.612;5.536;2022-07-10T01:56:12;17.83;;;7.10;;
59786;SDS011;45672;51.612;5.536;2022-07-10T01:58:38;14.55;;;6.40;;
59786;SDS011;45672;51.612;5.536;2022-07-10T02:01:04;17.83;;;6.80;;
59786;SDS011;45672;51.612;5.536;2022-07-10T02:03:30;16.45;;;7.68;;
59786;SDS011;45672;51.612;5.536;2022-07-10T02:06:14;14.50;;;7.63;;
59786;SDS011;45672;51.612;5.536;2022-07-10T02:08:39;14.68;;;5.93;;
59786;SDS011;45672;51.612;5.536;2022-07-10T02:11:04;10.90;;;4.85;;
59786;SDS011;45672;51.612;5.536;2022-07-10T02:13:30;8.73;;;3.38;;
59786;SDS011;45672;51.612;5.536;2022-07-10T02:15:56;6.18;;;3.10;;
59786;SDS011;45672;51.612;5.536;2022-07-10T02:18:25;3.92;;;2.25;;
59786;SDS011;45672;51.612;5.536;2022-07-10T02:20:50;11.32;;;2.63;;
59786;SDS011;45672;51.612;5.536;2022-07-10T02:23:17;10.32;;;2.50;;
59786;SDS011;45672;51.612;5.536;2022-07-10T02:25:43;6.10;;;2.85;;
59786;SDS011;45672;51.612;5.536;2022-07-10T02:28:09;7.70;;;3.42;;
59786;SDS011;45672;51.612;5.536;2022-07-10T02:30:34;7.25;;;3.65;;
59786;SDS011;45672;51.612;5.536;2022-07-10T02:33:00;8.90;;;3.67;;
59786;SDS011;45672;51.612;5.536;2022-07-10T02:35:28;7.75;;;2.88;;
59786;SDS011;45672;51.612;5.536;2022-07-10T02:37:53;6.15;;;2.65;;
59786;SDS011;45672;51.612;5.536;2022-07-10T02:40:19;6.70;;;3.28;;
59786;SDS011;45672;51.612;5.536;2022-07-10T02:42:44;8.15;;;4.10;;
59786;SDS011;45672;51.612;5.536;2022-07-10T02:45:10;21.40;;;6.22;;
59786;SDS011;45672;51.612;5.536;2022-07-10T02:47:36;15.57;;;6.72;;
59786;SDS011;45672;51.612;5.536;2022-07-10T02:50:01;17.23;;;6.80;;
59786;SDS011;45672;51.612;5.536;2022-07-10T02:52:27;16.42;;;6.72;;
59786;SDS011;45672;51.612;5.536;2022-07-10T02:54:55;14.40;;;6.47;;
59786;SDS011;45672;51.612;5.536;2022-07-10T02:57:21;15.45;;;5.55;;
59786;SDS011;45672;51.612;5.536;2022-07-10T02:59:46;11.80;;;5.32;;
59786;SDS011;45672;51.612;5.536;2022-07-10T03:02:11;15.43;;;4.78;;
59786;SDS011;45672;51.612;5.536;2022-07-10T03:04:38;9.50;;;4.03;;
59786;SDS011;45672;51.612;5.536;2022-07-10T03:07:04;11.55;;;4.47;;
59786;SDS011;45672;51.612;5.536;2022-07-10T03:09:29;12.13;;;5.32;;
59786;SDS011;45672;51.612;5.536;2022-07-10T03:11:54;15.15;;;4.78;;
59786;SDS011;45672;51.612;5.536;2022-07-10T03:14:21;12.45;;;4.70;;
59786;SDS011;45672;51.612;5.536;2022-07-10T03:16:46;10.13;;;4.78;;
59786;SDS011;45672;51.612;5.536;2022-07-10T03:19:12;14.45;;;4.50;;
59786;SDS011;45672;51.612;5.536;2022-07-10T03:21:39;6.32;;;4.07;;
59786;SDS011;45672;51.612;5.536;2022-07-10T03:24:04;11.73;;;5.45;;
59786;SDS011;45672;51.612;5.536;2022-07-10T03:26:30;12.35;;;5.45;;
59786;SDS011;45672;51.612;5.536;2022-07-10T03:28:55;13.13;;;5.70;;
59786;SDS011;45672;51.612;5.536;2022-07-10T03:31:21;10.48;;;4.80;;
59786;SDS011;45672;51.612;5.536;2022-07-10T03:33:47;5.43;;;3.15;;
59786;SDS011;45672;51.612;5.536;2022-07-10T03:36:13;8.38;;;2.85;;
59786;SDS011;45672;51.612;5.536;2022-07-10T03:38:38;5.57;;;2.50;;
59786;SDS011;45672;51.612;5.536;2022-07-10T03:41:04;6.45;;;2.85;;
59786;SDS011;45672;51.612;5.536;2022-07-10T03:43:29;5.47;;;3.03;;
59786;SDS011;45672;51.612;5.536;2022-07-10T03:45:54;8.05;;;3.10;;
59786;SDS011;45672;51.612;5.536;2022-07-10T03:48:21;5.68;;;2.90;;
59786;SDS011;45672;51.612;5.536;2022-07-10T03:50:49;9.85;;;3.30;;
59786;SDS011;45672;51.612;5.536;2022-07-10T03:53:15;9.95;;;4.40;;
59786;SDS011;45672;51.612;5.536;2022-07-10T03:55:42;8.50;;;4.28;;
59786;SDS011;45672;51.612;5.536;2022-07-10T03:58:07;13.43;;;6.05;;
59786;SDS011;45672;51.612;5.536;2022-07-10T04:00:32;10.40;;;5.30;;
59786;SDS011;45672;51.612;5.536;2022-07-10T04:02:59;9.18;;;5.35;;
59786;SDS011;45672;51.612;5.536;2022-07-10T04:05:26;17.55;;;5.85;;
59786;SDS011;45672;51.612;5.536;2022-07-10T04:07:51;14.00;;;5.45;;
59786;SDS011;45672;51.612;5.536;2022-07-10T04:10:18;10.07;;;4.97;;
59786;SDS011;45672;51.612;5.536;2022-07-10T04:12:44;11.00;;;5.57;;
59786;SDS011;45672;51.612;5.536;2022-07-10T04:15:10;9.57;;;4.60;;
59786;SDS011;45672;51.612;5.536;2022-07-10T04:17:35;12.82;;;3.38;;
59786;SDS011;45672;51.612;5.536;2022-07-10T04:20:01;8.35;;;4.18;;
59786;SDS011;45672;51.612;5.536;2022-07-10T04:22:27;15.02;;;4.50;;
59786;SDS011;45672;51.612;5.536;2022-07-10T04:24:53;8.82;;;5.60;;
59786;SDS011;45672;51.612;5.536;2022-07-10T04:27:19;14.30;;;6.15;;
59786;SDS011;45672;51.612;5.536;2022-07-10T04:29:44;13.40;;;5.63;;
59786;SDS011;45672;51.612;5.536;2022-07-10T04:32:10;12.00;;;4.60;;
59786;SDS011;45672;51.612;5.536;2022-07-10T04:34:35;8.10;;;3.00;;
59786;SDS011;45672;51.612;5.536;2022-07-10T04:37:00;7.97;;;2.78;;
59786;SDS011;45672;51.612;5.536;2022-07-10T04:39:26;6.78;;;3.00;;
59786;SDS011;45672;51.612;5.536;2022-07-10T04:41:51;6.85;;;2.63;;
59786;SDS011;45672;51.612;5.536;2022-07-10T04:44:17;3.33;;;2.20;;
59786;SDS011;45672;51.612;5.536;2022-07-10T04:46:43;9.13;;;2.72;;
59786;SDS011;45672;51.612;5.536;2022-07-10T04:49:08;6.18;;;2.33;;
59786;SDS011;45672;51.612;5.536;2022-07-10T04:51:34;6.80;;;2.20;;
59786;SDS011;45672;51.612;5.536;2022-07-10T04:53:59;6.40;;;2.75;;
59786;SDS011;45672;51.612;5.536;2022-07-10T04:56:25;5.90;;;2.55;;
59786;SDS011;45672;51.612;5.536;2022-07-10T04:58:51;5.57;;;2.65;;
59786;SDS011;45672;51.612;5.536;2022-07-10T05:01:16;11.20;;;3.30;;
59786;SDS011;45672;51.612;5.536;2022-07-10T05:03:41;9.13;;;4.05;;
59786;SDS011;45672;51.612;5.536;2022-07-10T05:06:07;10.48;;;3.83;;
59786;SDS011;45672;51.612;5.536;2022-07-10T05:08:32;10.57;;;3.83;;
59786;SDS011;45672;51.612;5.536;2022-07-10T05:10:58;7.57;;;3.55;;
59786;SDS011;45672;51.612;5.536;2022-07-10T05:13:24;5.53;;;2.05;;
59786;SDS011;45672;51.612;5.536;2022-07-10T05:15:50;8.70;;;2.35;;
59786;SDS011;45672;51.612;5.536;2022-07-10T05:18:15;4.10;;;2.30;;
59786;SDS011;45672;51.612;5.536;2022-07-10T05:20:41;7.20;;;2.40;;
59786;SDS011;45672;51.612;5.536;2022-07-10T05:23:08;9.73;;;2.20;;
59786;SDS011;45672;51.612;5.536;2022-07-10T05:25:34;6.70;;;2.35;;
59786;SDS011;45672;51.612;5.536;2022-07-10T05:27:59;5.60;;;2.60;;
59786;SDS011;45672;51.612;5.536;2022-07-10T05:30:25;8.50;;;2.85;;
59786;SDS011;45672;51.612;5.536;2022-07-10T05:32:50;5.32;;;2.53;;
59786;SDS011;45672;51.612;5.536;2022-07-10T05:35:15;6.20;;;2.35;;
59786;SDS011;45672;51.612;5.536;2022-07-10T05:37:41;7.18;;;2.20;;
59786;SDS011;45672;51.612;5.536;2022-07-10T05:40:07;4.55;;;2.42;;
59786;SDS011;45672;51.612;5.536;2022-07-10T05:42:33;5.93;;;2.05;;
59786;SDS011;45672;51.612;5.536;2022-07-10T05:44:59;9.48;;;2.20;;
59786;SDS011;45672;51.612;5.536;2022-07-10T05:47:24;4.63;;;2.00;;
59786;SDS011;45672;51.612;5.536;2022-07-10T05:49:50;9.82;;;2.28;;
59786;SDS011;45672;51.612;5.536;2022-07-10T05:52:15;7.95;;;2.10;;
59786;SDS011;45672;51.612;5.536;2022-07-10T05:54:40;6.53;;;1.98;;
59786;SDS011;45672;51.612;5.536;2022-07-10T05:57:06;7.75;;;2.20;;
59786;SDS011;45672;51.612;5.536;2022-07-10T05:59:34;6.22;;;2.05;;
59786;SDS011;45672;51.612;5.536;2022-07-10T06:02:00;8.32;;;1.90;;
59786;SDS011;45672;51.612;5.536;2022-07-10T06:04:26;6.85;;;2.17;;
59786;SDS011;45672;51.612;5.536;2022-07-10T06:06:51;3.88;;;1.90;;
59786;SDS011;45672;51.612;5.536;2022-07-10T06:09:16;7.28;;;2.25;;
59786;SDS011;45672;51.612;5.536;2022-07-10T06:11:41;4.40;;;1.95;;
59786;SDS011;45672;51.612;5.536;2022-07-10T06:14:09;8.77;;;2.03;;
59786;SDS011;45672;51.612;5.536;2022-07-10T06:16:34;8.73;;;1.92;;
59786;SDS011;45672;51.612;5.536;2022-07-10T06:19:00;4.97;;;1.60;;
59786;SDS011;45672;51.612;5.536;2022-07-10T06:21:25;6.32;;;1.67;;
59786;SDS011;45672;51.612;5.536;2022-07-10T06:23:52;4.30;;;1.73;;
59786;SDS011;45672;51.612;5.536;2022-07-10T06:26:17;10.57;;;1.75;;
59786;SDS011;45672;51.612;5.536;2022-07-10T06:28:42;5.97;;;1.67;;
59786;SDS011;45672;51.612;5.536;2022-07-10T06:31:10;5.85;;;1.65;;
59786;SDS011;45672;51.612;5.536;2022-07-10T06:33:36;10.85;;;3.15;;
59786;SDS011;45672;51.612;5.536;2022-07-10T06:36:02;7.80;;;1.77;;
59786;SDS011;45672;51.612;5.536;2022-07-10T06:38:27;3.50;;;1.48;;
59786;SDS011;45672;51.612;5.536;2022-07-10T06:40:54;3.65;;;1.25;;
59786;SDS011;45672;51.612;5.536;2022-07-10T06:43:19;9.07;;;1.92;;
59786;SDS011;45672;51.612;5.536;2022-07-10T06:45:44;7.80;;;2.00;;
59786;SDS011;45672;51.612;5.536;2022-07-10T06:48:10;6.63;;;2.13;;
59786;SDS011;45672;51.612;5.536;2022-07-10T06:50:36;7.28;;;1.70;;
59786;SDS011;45672;51.612;5.536;2022-07-10T06:53:02;4.90;;;1.83;;
59786;SDS011;45672;51.612;5.536;2022-07-10T06:55:29;4.80;;;1.42;;
59786;SDS011;45672;51.612;5.536;2022-07-10T06:57:57;6.70;;;1.63;;
59786;SDS011;45672;51.612;5.536;2022-07-10T07:00:23;9.13;;;1.70;;
59786;SDS011;45672;51.612;5.536;2022-07-10T07:02:48;8.50;;;1.77;;
59786;SDS011;45672;51.612;5.536;2022-07-10T07:05:14;5.40;;;1.50;;
59786;SDS011;45672;51.612;5.536;2022-07-10T07:07:39;4.55;;;1.58;;
59786;SDS011;45672;51.612;5.536;2022-07-10T07:10:05;9.50;;;1.90;;
59786;SDS011;45672;51.612;5.536;2022-07-10T07:12:31;5.43;;;1.70;;
59786;SDS011;45672;51.612;5.536;2022-07-10T07:14:56;9.23;;;2.00;;
59786;SDS011;45672;51.612;5.536;2022-07-10T07:17:22;7.32;;;1.55;;
59786;SDS011;45672;51.612;5.536;2022-07-10T07:19:49;5.43;;;2.15;;
59786;SDS011;45672;51.612;5.536;2022-07-10T07:22:33;6.00;;;1.70;;
59786;SDS011;45672;51.612;5.536;2022-07-10T07:25:17;8.18;;;1.92;;
59786;SDS011;45672;51.612;5.536;2022-07-10T07:27:42;7.60;;;1.65;;
59786;SDS011;45672;51.612;5.536;2022-07-10T07:30:10;6.45;;;2.00;;
59786;SDS011;45672;51.612;5.536;2022-07-10T07:32:37;7.82;;;2.00;;
59786;SDS011;45672;51.612;5.536;2022-07-10T07:35:04;6.95;;;1.95;;
59786;SDS011;45672;51.612;5.536;2022-07-10T07:37:40;6.45;;;1.92;;
59786;SDS011;45672;51.612;5.536;2022-07-10T07:40:08;13.40;;;2.33;;
59786;SDS011;45672;51.612;5.536;2022-07-10T07:42:37;7.60;;;2.10;;
59786;SDS011;45672;51.612;5.536;2022-07-10T07:45:03;6.70;;;2.25;;
59786;SDS011;45672;51.612;5.536;2022-07-10T07:47:30;6.38;;;2.40;;
59786;SDS011;45672;51.612;5.536;2022-07-10T07:49:56;6.95;;;2.35;;
59786;SDS011;45672;51.612;5.536;2022-07-10T07:52:21;10.02;;;2.10;;
59786;SDS011;45672;51.612;5.536;2022-07-10T07:54:47;7.22;;;2.30;;
59786;SDS011;45672;51.612;5.536;2022-07-10T07:57:13;11.65;;;2.78;;
59786;SDS011;45672;51.612;5.536;2022-07-10T07:59:39;7.72;;;2.58;;
59786;SDS011;45672;51.612;5.536;2022-07-10T08:02:05;7.28;;;1.95;;
59786;SDS011;45672;51.612;5.536;2022-07-10T08:04:30;7.57;;;2.00;;
59786;SDS011;45672;51.612;5.536;2022-07-10T08:06:55;10.05;;;2.00;;
59786;SDS011;45672;51.612;5.536;2022-07-10T08:09:21;5.65;;;1.95;;
59786;SDS011;45672;51.612;5.536;2022-07-10T08:11:46;9.80;;;2.00;;
59786;SDS011;45672;51.612;5.536;2022-07-10T08:14:12;7.90;;;2.00;;
59786;SDS011;45672;51.612;5.536;2022-07-10T08:16:38;8.85;;;2.05;;
59786;SDS011;45672;51.612;5.536;2022-07-10T08:19:04;6.43;;;2.33;;
59786;SDS011;45672;51.612;5.536;2022-07-10T08:21:30;6.63;;;2.20;;
59786;SDS011;45672;51.612;5.536;2022-07-10T08:23:55;5.80;;;2.35;;
59786;SDS011;45672;51.612;5.536;2022-07-10T08:26:21;13.30;;;2.40;;
59786;SDS011;45672;51.612;5.536;2022-07-10T08:28:46;6.05;;;2.35;;
59786;SDS011;45672;51.612;5.536;2022-07-10T08:31:12;7.68;;;2.10;;
59786;SDS011;45672;51.612;5.536;2022-07-10T08:33:37;9.90;;;2.28;;
59786;SDS011;45672;51.612;5.536;2022-07-10T08:36:03;6.93;;;2.05;;
59786;SDS011;45672;51.612;5.536;2022-07-10T08:38:29;8.55;;;2.22;;
59786;SDS011;45672;51.612;5.536;2022-07-10T08:40:55;8.35;;;2.08;;
59786;SDS011;45672;51.612;5.536;2022-07-10T08:43:24;6.88;;;1.98;;
59786;SDS011;45672;51.612;5.536;2022-07-10T08:45:52;6.45;;;2.10;;
59786;SDS011;45672;51.612;5.536;2022-07-10T08:48:21;5.72;;;2.60;;
59786;SDS011;45672;51.612;5.536;2022-07-10T08:50:48;8.38;;;2.17;;
59786;SDS011;45672;51.612;5.536;2022-07-10T08:53:29;5.65;;;2.30;;
59786;SDS011;45672;51.612;5.536;2022-07-10T08:55:57;8.50;;;2.63;;
59786;SDS011;45672;51.612;5.536;2022-07-10T08:58:23;7.10;;;2.38;;
59786;SDS011;45672;51.612;5.536;2022-07-10T09:00:48;6.18;;;2.40;;
59786;SDS011;45672;51.612;5.536;2022-07-10T09:03:14;3.00;;;1.90;;
59786;SDS011;45672;51.612;5.536;2022-07-10T09:05:39;8.45;;;1.98;;
59786;SDS011;45672;51.612;5.536;2022-07-10T09:08:07;5.55;;;2.33;;
59786;SDS011;45672;51.612;5.536;2022-07-10T09:10:46;10.45;;;2.50;;
59786;SDS011;45672;51.612;5.536;2022-07-10T09:13:11;5.93;;;2.50;;
59786;SDS011;45672;51.612;5.536;2022-07-10T09:15:37;6.22;;;2.45;;
59786;SDS011;45672;51.612;5.536;2022-07-10T09:18:03;8.82;;;2.38;;
59786;SDS011;45672;51.612;5.536;2022-07-10T09:20:33;4.53;;;2.15;;
59786;SDS011;45672;51.612;5.536;2022-07-10T09:23:16;5.63;;;2.55;;
59786;SDS011;45672;51.612;5.536;2022-07-10T09:25:43;4.90;;;2.40;;
59786;SDS011;45672;51.612;5.536;2022-07-10T09:28:12;6.18;;;1.85;;
59786;SDS011;45672;51.612;5.536;2022-07-10T09:30:40;4.00;;;2.28;;
59786;SDS011;45672;51.612;5.536;2022-07-10T09:33:16;3.35;;;2.03;;
59786;SDS011;45672;51.612;5.536;2022-07-10T09:41:14;4.75;;;1.88;;
59786;SDS011;45672;51.612;5.536;2022-07-10T09:43:49;7.43;;;2.17;;
59786;SDS011;45672;51.612;5.536;2022-07-10T09:46:15;7.05;;;1.95;;
59786;SDS011;45672;51.612;5.536;2022-07-10T09:48:42;8.30;;;2.22;;
59786;SDS011;45672;51.612;5.536;2022-07-10T09:51:08;7.93;;;2.00;;
59786;SDS011;45672;51.612;5.536;2022-07-10T09:53:38;6.47;;;1.90;;
59786;SDS011;45672;51.612;5.536;2022-07-10T09:56:08;6.07;;;2.10;;
59786;SDS011;45672;51.612;5.536;2022-07-10T09:58:34;2.95;;;1.83;;
59786;SDS011;45672;51.612;5.536;2022-07-10T10:01:07;5.07;;;2.13;;
59786;SDS011;45672;51.612;5.536;2022-07-10T10:03:34;6.88;;;2.25;;
59786;SDS011;45672;51.612;5.536;2022-07-10T10:06:05;4.82;;;3.90;;
59786;SDS011;45672;51.612;5.536;2022-07-10T10:11:36;5.28;;;2.63;;
59786;SDS011;45672;51.612;5.536;2022-07-10T10:14:06;4.25;;;2.70;;
59786;SDS011;45672;51.612;5.536;2022-07-10T10:16:32;5.65;;;2.58;;
59786;SDS011;45672;51.612;5.536;2022-07-10T10:18:59;5.90;;;2.30;;
59786;SDS011;45672;51.612;5.536;2022-07-10T10:21:45;9.80;;;2.40;;
59786;SDS011;45672;51.612;5.536;2022-07-10T10:24:11;2.80;;;1.80;;
59786;SDS011;45672;51.612;5.536;2022-07-10T10:26:38;4.88;;;2.10;;
59786;SDS011;45672;51.612;5.536;2022-07-10T10:29:05;3.20;;;2.00;;
59786;SDS011;45672;51.612;5.536;2022-07-10T10:31:31;5.00;;;2.05;;
59786;SDS011;45672;51.612;5.536;2022-07-10T10:33:57;4.70;;;2.13;;
59786;SDS011;45672;51.612;5.536;2022-07-10T10:39:00;10.68;;;1.98;;
59786;SDS011;45672;51.612;5.536;2022-07-10T10:41:38;7.25;;;1.80;;
59786;SDS011;45672;51.612;5.536;2022-07-10T10:49:16;2.58;;;1.55;;
59786;SDS011;45672;51.612;5.536;2022-07-10T10:52:00;1.55;;;1.10;;
59786;SDS011;45672;51.612;5.536;2022-07-10T10:54:27;6.53;;;1.33;;
59786;SDS011;45672;51.612;5.536;2022-07-10T10:57:13;3.17;;;1.48;;
59786;SDS011;45672;51.612;5.536;2022-07-10T11:04:46;5.18;;;1.80;;
59786;SDS011;45672;51.612;5.536;2022-07-10T11:10:34;2.60;;;1.42;;
59786;SDS011;45672;51.612;5.536;2022-07-10T11:15:30;4.00;;;1.42;;
59786;SDS011;45672;51.612;5.536;2022-07-10T11:18:10;5.95;;;1.80;;
59786;SDS011;45672;51.612;5.536;2022-07-10T11:20:40;4.38;;;1.60;;
59786;SDS011;45672;51.612;5.536;2022-07-10T11:26:13;5.70;;;1.58;;
59786;SDS011;45672;51.612;5.536;2022-07-10T11:28:54;3.42;;;1.60;;
59786;SDS011;45672;51.612;5.536;2022-07-10T11:31:24;4.90;;;2.00;;
59786;SDS011;45672;51.612;5.536;2022-07-10T11:33:51;3.63;;;1.70;;
59786;SDS011;45672;51.612;5.536;2022-07-10T11:36:18;4.53;;;1.80;;
59786;SDS011;45672;51.612;5.536;2022-07-10T11:39:01;4.05;;;1.58;;
59786;SDS011;45672;51.612;5.536;2022-07-10T11:41:29;2.65;;;1.63;;
59786;SDS011;45672;51.612;5.536;2022-07-10T11:44:00;7.35;;;1.80;;
59786;SDS011;45672;51.612;5.536;2022-07-10T11:46:27;3.10;;;1.80;;
59786;SDS011;45672;51.612;5.536;2022-07-10T11:48:54;4.57;;;1.50;;
59786;SDS011;45672;51.612;5.536;2022-07-10T11:51:30;2.70;;;1.30;;
59786;SDS011;45672;51.612;5.536;2022-07-10T11:54:01;1.95;;;1.60;;
59786;SDS011;45672;51.612;5.536;2022-07-10T11:56:39;3.40;;;1.57;;
59786;SDS011;45672;51.612;5.536;2022-07-10T11:59:09;2.42;;;1.23;;
59786;SDS011;45672;51.612;5.536;2022-07-10T12:01:40;4.55;;;1.55;;
59786;SDS011;45672;51.612;5.536;2022-07-10T12:04:07;2.95;;;1.40;;
59786;SDS011;45672;51.612;5.536;2022-07-10T12:06:35;4.18;;;1.48;;
59786;SDS011;45672;51.612;5.536;2022-07-10T12:11:33;2.10;;;1.30;;
59786;SDS011;45672;51.612;5.536;2022-07-10T12:14:18;3.67;;;1.50;;
59786;SDS011;45672;51.612;5.536;2022-07-10T12:16:45;1.63;;;1.20;;
59786;SDS011;45672;51.612;5.536;2022-07-10T12:19:12;3.22;;;1.20;;
59786;SDS011;45672;51.612;5.536;2022-07-10T12:21:40;6.72;;;1.30;;
59786;SDS011;45672;51.612;5.536;2022-07-10T12:24:07;3.03;;;1.10;;
59786;SDS011;45672;51.612;5.536;2022-07-10T12:26:36;4.13;;;1.30;;
59786;SDS011;45672;51.612;5.536;2022-07-10T12:29:04;1.63;;;1.10;;
59786;SDS011;45672;51.612;5.536;2022-07-10T12:31:30;6.00;;;1.38;;
59786;SDS011;45672;51.612;5.536;2022-07-10T12:33:59;2.28;;;1.20;;
59786;SDS011;45672;51.612;5.536;2022-07-10T12:36:45;2.80;;;1.42;;
59786;SDS011;45672;51.612;5.536;2022-07-10T12:39:18;3.65;;;1.38;;
59786;SDS011;45672;51.612;5.536;2022-07-10T12:41:56;3.22;;;1.20;;
59786;SDS011;45672;51.612;5.536;2022-07-10T12:47:44;2.22;;;1.23;;
59786;SDS011;45672;51.612;5.536;2022-07-10T12:50:16;2.25;;;0.90;;
59786;SDS011;45672;51.612;5.536;2022-07-10T12:52:43;2.22;;;1.20;;
59786;SDS011;45672;51.612;5.536;2022-07-10T12:57:49;2.40;;;1.02;;
59786;SDS011;45672;51.612;5.536;2022-07-10T13:00:21;2.08;;;1.00;;
59786;SDS011;45672;51.612;5.536;2022-07-10T13:02:47;3.03;;;1.02;;
59786;SDS011;45672;51.612;5.536;2022-07-10T13:05:35;4.50;;;1.38;;
59786;SDS011;45672;51.612;5.536;2022-07-10T13:10:52;2.88;;;1.10;;
59786;SDS011;45672;51.612;5.536;2022-07-10T13:13:23;2.33;;;1.10;;
59786;SDS011;45672;51.612;5.536;2022-07-10T13:15:48;1.63;;;1.13;;
59786;SDS011;45672;51.612;5.536;2022-07-10T13:18:28;2.10;;;1.13;;
59786;SDS011;45672;51.612;5.536;2022-07-10T13:20:54;7.47;;;1.35;;
59786;SDS011;45672;51.612;5.536;2022-07-10T13:23:21;4.25;;;1.33;;
59786;SDS011;45672;51.612;5.536;2022-07-10T13:25:55;2.65;;;1.20;;
59786;SDS011;45672;51.612;5.536;2022-07-10T13:28:21;3.55;;;1.52;;
59786;SDS011;45672;51.612;5.536;2022-07-10T13:30:47;8.35;;;1.10;;
59786;SDS011;45672;51.612;5.536;2022-07-10T13:33:12;3.45;;;1.20;;
59786;SDS011;45672;51.612;5.536;2022-07-10T13:35:38;2.03;;;0.98;;
59786;SDS011;45672;51.612;5.536;2022-07-10T13:38:04;2.78;;;1.17;;
59786;SDS011;45672;51.612;5.536;2022-07-10T13:40:32;3.60;;;1.10;;
59786;SDS011;45672;51.612;5.536;2022-07-10T13:42:59;2.47;;;1.00;;
59786;SDS011;45672;51.612;5.536;2022-07-10T13:45:25;1.80;;;1.00;;
59786;SDS011;45672;51.612;5.536;2022-07-10T13:47:57;2.72;;;1.20;;
59786;SDS011;45672;51.612;5.536;2022-07-10T13:50:23;3.50;;;1.10;;
59786;SDS011;45672;51.612;5.536;2022-07-10T13:52:48;1.83;;;0.93;;
59786;SDS011;45672;51.612;5.536;2022-07-10T13:55:14;6.25;;;1.25;;
59786;SDS011;45672;51.612;5.536;2022-07-10T13:57:39;4.80;;;1.10;;
59786;SDS011;45672;51.612;5.536;2022-07-10T14:00:05;2.70;;;1.13;;
59786;SDS011;45672;51.612;5.536;2022-07-10T14:02:31;3.28;;;1.33;;
59786;SDS011;45672;51.612;5.536;2022-07-10T14:04:57;1.92;;;1.17;;
59786;SDS011;45672;51.612;5.536;2022-07-10T14:07:22;3.53;;;1.27;;
59786;SDS011;45672;51.612;5.536;2022-07-10T14:09:47;1.80;;;0.90;;
59786;SDS011;45672;51.612;5.536;2022-07-10T14:12:13;2.10;;;1.00;;
59786;SDS011;45672;51.612;5.536;2022-07-10T14:14:38;3.00;;;0.85;;
59786;SDS011;45672;51.612;5.536;2022-07-10T14:17:03;3.00;;;1.13;;
59786;SDS011;45672;51.612;5.536;2022-07-10T14:19:29;2.13;;;1.15;;
59786;SDS011;45672;51.612;5.536;2022-07-10T14:21:55;3.50;;;0.95;;
59786;SDS011;45672;51.612;5.536;2022-07-10T14:24:21;5.13;;;1.23;;
59786;SDS011;45672;51.612;5.536;2022-07-10T14:26:46;1.90;;;1.00;;
59786;SDS011;45672;51.612;5.536;2022-07-10T14:29:12;2.35;;;1.00;;
59786;SDS011;45672;51.612;5.536;2022-07-10T14:31:38;2.53;;;1.25;;
59786;SDS011;45672;51.612;5.536;2022-07-10T14:34:03;3.38;;;1.30;;
59786;SDS011;45672;51.612;5.536;2022-07-10T14:36:29;2.08;;;1.20;;
59786;SDS011;45672;51.612;5.536;2022-07-10T14:38:55;1.10;;;1.00;;
59786;SDS011;45672;51.612;5.536;2022-07-10T14:41:24;2.63;;;1.30;;
59786;SDS011;45672;51.612;5.536;2022-07-10T14:43:52;1.57;;;1.00;;
59786;SDS011;45672;51.612;5.536;2022-07-10T14:46:17;4.63;;;1.20;;
59786;SDS011;45672;51.612;5.536;2022-07-10T14:48:43;5.35;;;1.30;;
59786;SDS011;45672;51.612;5.536;2022-07-10T14:51:08;2.90;;;1.05;;
59786;SDS011;45672;51.612;5.536;2022-07-10T14:53:34;3.28;;;1.20;;
59786;SDS011;45672;51.612;5.536;2022-07-10T14:56:48;2.05;;;1.20;;
59786;SDS011;45672;51.612;5.536;2022-07-10T14:59:13;4.30;;;1.13;;
59786;SDS011;45672;51.612;5.536;2022-07-10T15:01:39;1.88;;;1.00;;
59786;SDS011;45672;51.612;5.536;2022-07-10T15:04:04;2.35;;;1.10;;
59786;SDS011;45672;51.612;5.536;2022-07-10T15:06:29;2.05;;;1.15;;
59786;SDS011;45672;51.612;5.536;2022-07-10T15:08:55;2.47;;;1.10;;
59786;SDS011;45672;51.612;5.536;2022-07-10T15:11:20;4.38;;;1.25;;
59786;SDS011;45672;51.612;5.536;2022-07-10T15:13:47;3.22;;;1.20;;
59786;SDS011;45672;51.612;5.536;2022-07-10T15:16:13;4.90;;;1.55;;
59786;SDS011;45672;51.612;5.536;2022-07-10T15:18:38;2.75;;;1.20;;
59786;SDS011;45672;51.612;5.536;2022-07-10T15:21:04;2.00;;;1.50;;
59786;SDS011;45672;51.612;5.536;2022-07-10T15:23:29;2.78;;;1.40;;
59786;SDS011;45672;51.612;5.536;2022-07-10T15:25:54;1.67;;;1.30;;
59786;SDS011;45672;51.612;5.536;2022-07-10T15:28:20;1.35;;;1.00;;